Time;durP1;ratioP1;P1;durP2;ratioP2;P2;SDS_P1;SDS_P2;PMS_P1;PMS_P2;Temp;Humidity;BMP_temperature;BMP_pressure;BME280_temperature;BME280_humidity;BME280_pressure;Samples;Min_cycle;Max_cycle;Signal;HPM_P1;HPM_P2
2022/07/07 00:01:45;;;;;;;1.30;1.05;;;22.60;99.90;;;;;;4982211;28;20213;-76
2022/07/07 00:04:12;;;;;;;1.02;0.90;;;22.60;99.90;;;;;;4981508;28;20595;-76
2022/07/07 00:06:39;;;;;;;1.35;0.95;;;22.50;99.90;;;;;;4985391;28;20222;-76
2022/07/07 00:09:07;;;;;;;1.10;1.10;;;22.50;99.90;;;;;;4981938;28;20200;-76
2022/07/07 00:11:34;;;;;;;1.10;1.00;;;22.50;99.90;;;;;;4987072;28;20306;-77
2022/07/07 00:14:01;;;;;;;1.80;1.10;;;22.40;99.90;;;;;;4984179;28;20239;-77
2022/07/07 00:16:30;;;;;;;0.98;0.98;;;22.30;99.90;;;;;;4987174;28;20781;-77
2022/07/07 00:18:57;;;;;;;1.00;1.00;;;22.30;99.90;;;;;;4985381;28;20254;-76
2022/07/07 00:21:24;;;;;;;1.13;1.10;;;22.30;99.90;;;;;;4984383;28;20437;-76
2022/07/07 00:23:51;;;;;;;0.90;0.90;;;22.20;99.90;;;;;;4990084;28;20238;-76
2022/07/07 00:26:18;;;;;;;1.20;0.95;;;22.10;99.90;;;;;;4991710;28;20227;-77
2022/07/07 00:28:45;;;;;;;0.80;0.80;;;22.00;99.90;;;;;;4987358;28;20208;-76
2022/07/07 00:31:12;;;;;;;0.93;0.90;;;22.00;99.90;;;;;;4989597;28;20274;-75
2022/07/07 00:33:41;;;;;;;1.65;1.27;;;22.00;99.90;;;;;;4995508;28;20224;-75
2022/07/07 00:36:09;;;;;;;0.88;0.88;;;22.00;99.90;;;;;;4989009;28;21781;-76
2022/07/07 00:38:36;;;;;;;1.23;1.13;;;22.00;99.90;;;;;;4988866;28;20215;-76
2022/07/07 00:41:03;;;;;;;1.15;1.08;;;22.00;99.90;;;;;;4984973;28;20669;-76
2022/07/07 00:43:36;;;;;;;1.00;1.00;;;22.00;99.90;;;;;;4986268;28;20221;-76
2022/07/07 00:46:04;;;;;;;1.95;1.17;;;22.00;99.90;;;;;;4989807;28;20620;-76
2022/07/07 00:48:34;;;;;;;1.20;1.10;;;21.90;99.90;;;;;;4984232;28;20214;-75
2022/07/07 00:51:04;;;;;;;1.42;0.93;;;21.90;99.90;;;;;;4978955;28;21187;-76
2022/07/07 00:53:31;;;;;;;1.30;1.20;;;21.80;99.90;;;;;;4983601;28;20757;-76
2022/07/07 00:55:58;;;;;;;1.20;1.10;;;21.80;99.90;;;;;;4979363;28;20233;-76
2022/07/07 00:58:26;;;;;;;1.50;1.40;;;21.80;99.90;;;;;;4985035;28;20651;-77
2022/07/07 01:00:53;;;;;;;1.25;1.15;;;21.80;99.90;;;;;;4984644;28;20224;-76
2022/07/07 01:03:27;;;;;;;1.10;1.10;;;21.70;99.90;;;;;;4980854;28;20819;-76
2022/07/07 01:05:55;;;;;;;1.30;1.20;;;21.70;99.90;;;;;;4981570;28;20738;-75
2022/07/07 01:08:23;;;;;;;1.38;1.30;;;21.60;99.90;;;;;;4983759;28;20240;-77
2022/07/07 01:10:50;;;;;;;1.10;1.05;;;21.60;99.90;;;;;;4984140;28;20231;-77
2022/07/07 01:13:17;;;;;;;1.20;1.10;;;21.50;99.90;;;;;;4982859;28;20240;-76
2022/07/07 01:15:45;;;;;;;1.00;1.00;;;21.50;99.90;;;;;;4978125;28;20221;-76
2022/07/07 01:18:12;;;;;;;1.13;1.13;;;21.50;99.90;;;;;;4983796;28;20212;-78
2022/07/07 01:20:45;;;;;;;2.00;1.30;;;21.50;99.90;;;;;;4981980;28;20217;-77
2022/07/07 01:23:15;;;;;;;1.00;1.00;;;21.60;99.90;;;;;;4980555;28;20223;-76
2022/07/07 01:25:43;;;;;;;1.02;1.02;;;21.60;99.90;;;;;;4992064;28;20245;-77
2022/07/07 01:28:10;;;;;;;1.70;1.30;;;21.60;99.90;;;;;;4991712;28;20201;-76
2022/07/07 01:30:37;;;;;;;1.02;1.02;;;21.50;99.90;;;;;;4984904;28;20588;-75
2022/07/07 01:33:05;;;;;;;0.90;0.90;;;21.50;99.90;;;;;;4987703;28;20728;-76
2022/07/07 01:35:32;;;;;;;1.10;1.00;;;21.50;99.90;;;;;;4985793;28;20261;-77
2022/07/07 01:37:59;;;;;;;1.15;1.05;;;21.40;99.90;;;;;;4990391;28;20260;-76
2022/07/07 01:40:28;;;;;;;1.05;1.05;;;21.40;99.90;;;;;;4983146;28;20732;-75
2022/07/07 01:42:55;;;;;;;1.30;1.20;;;21.40;99.90;;;;;;4988084;28;20527;-75
2022/07/07 01:45:22;;;;;;;1.00;1.00;;;21.40;99.90;;;;;;4983315;28;20220;-77
2022/07/07 01:47:50;;;;;;;1.10;1.10;;;21.30;99.90;;;;;;4978910;28;20205;-78
2022/07/07 01:50:17;;;;;;;1.20;1.20;;;21.30;99.90;;;;;;4981704;28;20232;-76
2022/07/07 01:52:45;;;;;;;0.90;0.90;;;21.30;99.90;;;;;;4982486;28;20227;-76
2022/07/07 01:55:12;;;;;;;1.30;1.20;;;21.30;99.90;;;;;;4988848;28;20545;-76
2022/07/07 01:57:41;;;;;;;1.48;1.15;;;21.30;99.90;;;;;;4986797;28;20280;-75
2022/07/07 02:00:09;;;;;;;1.35;1.25;;;21.30;99.90;;;;;;4988050;28;20227;-75
2022/07/07 02:02:37;;;;;;;1.08;1.08;;;21.30;99.90;;;;;;4987166;28;20227;-77
2022/07/07 02:05:04;;;;;;;1.30;1.20;;;21.20;99.90;;;;;;4988041;28;20661;-77
2022/07/07 02:07:33;;;;;;;1.17;1.17;;;21.20;99.90;;;;;;4983793;28;20656;-76
2022/07/07 02:10:01;;;;;;;1.23;1.13;;;21.10;99.90;;;;;;4986976;28;20213;-76
2022/07/07 02:12:28;;;;;;;1.02;1.02;;;21.00;99.90;;;;;;4986669;28;20231;-77
2022/07/07 02:14:58;;;;;;;1.20;1.20;;;20.90;99.90;;;;;;4985682;28;20227;-77
2022/07/07 02:17:25;;;;;;;1.05;1.05;;;20.90;99.90;;;;;;4997327;28;20692;-76
2022/07/07 02:19:52;;;;;;;1.00;1.00;;;20.90;99.90;;;;;;4978932;28;20197;-76
2022/07/07 02:22:20;;;;;;;1.02;1.02;;;20.90;99.90;;;;;;4980279;28;20847;-76
2022/07/07 02:24:47;;;;;;;0.98;0.98;;;21.00;99.90;;;;;;4983332;28;20224;-76
2022/07/07 02:27:14;;;;;;;1.20;1.10;;;21.00;99.90;;;;;;4984788;28;20204;-77
2022/07/07 02:29:42;;;;;;;1.02;1.00;;;21.00;99.90;;;;;;4981219;28;20196;-76
2022/07/07 02:32:10;;;;;;;1.15;1.10;;;21.00;99.90;;;;;;4982581;28;20595;-76
2022/07/07 02:34:37;;;;;;;3.03;1.20;;;20.90;99.90;;;;;;5017674;23;20599;-76
2022/07/07 02:37:05;;;;;;;1.30;1.20;;;20.90;99.90;;;;;;5002881;28;20224;-75
2022/07/07 02:39:32;;;;;;;1.83;1.08;;;20.90;99.90;;;;;;5005593;28;20275;-76
2022/07/07 02:41:59;;;;;;;1.30;1.20;;;20.90;99.90;;;;;;5011894;28;20212;-77
2022/07/07 02:44:26;;;;;;;1.08;1.08;;;20.90;99.90;;;;;;5003923;28;20227;-77
2022/07/07 02:46:53;;;;;;;1.20;1.10;;;20.90;99.90;;;;;;5005738;28;20224;-75
2022/07/07 02:49:22;;;;;;;1.15;1.10;;;20.80;99.90;;;;;;5012204;28;20206;-76
2022/07/07 02:51:49;;;;;;;1.20;1.10;;;20.80;99.90;;;;;;5011742;28;20212;-76
2022/07/07 02:54:17;;;;;;;1.33;1.20;;;20.80;99.90;;;;;;5010076;28;20251;-76
2022/07/07 02:56:45;;;;;;;1.00;1.00;;;20.80;99.90;;;;;;5011173;28;20217;-76
2022/07/07 02:59:12;;;;;;;1.00;1.00;;;20.80;99.90;;;;;;5014855;28;20351;-77
2022/07/07 03:01:39;;;;;;;1.23;1.23;;;20.80;99.90;;;;;;5000260;28;20777;-76
2022/07/07 03:04:06;;;;;;;1.33;1.23;;;20.80;99.90;;;;;;5008075;28;20302;-76
2022/07/07 03:06:35;;;;;;;1.13;1.13;;;20.90;99.90;;;;;;5005569;28;20729;-76
2022/07/07 03:09:02;;;;;;;1.20;1.17;;;20.90;99.90;;;;;;5010609;28;20239;-76
2022/07/07 03:11:29;;;;;;;1.23;1.23;;;20.90;99.90;;;;;;5008291;28;20229;-76
2022/07/07 03:13:56;;;;;;;1.33;1.15;;;20.90;99.90;;;;;;5009840;28;20206;-76
2022/07/07 03:16:24;;;;;;;1.10;1.10;;;20.80;99.90;;;;;;5008770;28;20242;-77
2022/07/07 03:18:51;;;;;;;1.10;1.10;;;20.80;99.90;;;;;;5004552;28;20201;-75
2022/07/07 03:21:18;;;;;;;1.92;1.10;;;20.80;99.90;;;;;;5010653;28;20226;-77
2022/07/07 03:23:46;;;;;;;1.00;1.00;;;20.80;99.90;;;;;;5008898;28;20255;-76
2022/07/07 03:26:14;;;;;;;0.90;0.90;;;20.80;99.90;;;;;;5012655;28;20224;-76
2022/07/07 03:28:41;;;;;;;1.10;1.00;;;20.70;99.90;;;;;;5009045;28;20212;-77
2022/07/07 03:31:08;;;;;;;0.90;0.90;;;20.70;99.90;;;;;;5010095;28;20226;-76
2022/07/07 03:33:38;;;;;;;1.10;1.10;;;20.70;99.90;;;;;;5013765;28;20299;-78
2022/07/07 03:36:06;;;;;;;1.27;1.20;;;20.70;99.90;;;;;;5005530;28;20228;-77
2022/07/07 03:38:34;;;;;;;0.85;0.85;;;20.70;99.90;;;;;;5014718;28;20209;-75
2022/07/07 03:41:02;;;;;;;1.27;1.27;;;20.60;99.90;;;;;;5010861;28;20227;-76
2022/07/07 03:43:30;;;;;;;1.17;1.10;;;20.60;99.90;;;;;;5009160;28;20200;-76
2022/07/07 03:45:57;;;;;;;1.17;1.13;;;20.60;99.90;;;;;;5005038;28;20221;-76
2022/07/07 03:48:24;;;;;;;1.10;1.05;;;20.60;99.90;;;;;;5011286;28;20211;-76
2022/07/07 03:50:51;;;;;;;1.13;1.13;;;20.60;99.90;;;;;;5024688;28;20215;-76
2022/07/07 03:53:18;;;;;;;1.30;1.20;;;20.50;99.90;;;;;;5024450;28;20289;-77
2022/07/07 03:55:45;;;;;;;1.10;1.00;;;20.50;99.90;;;;;;5013221;28;20220;-76
2022/07/07 03:58:15;;;;;;;1.17;1.15;;;20.50;99.90;;;;;;5010016;28;20210;-77
2022/07/07 04:00:42;;;;;;;1.08;1.08;;;20.50;99.90;;;;;;5012804;28;20251;-76
2022/07/07 04:03:09;;;;;;;1.38;1.27;;;20.50;99.90;;;;;;5018219;28;20303;-76
2022/07/07 04:05:37;;;;;;;1.40;1.30;;;20.50;99.90;;;;;;5007189;28;20224;-76
2022/07/07 04:08:04;;;;;;;1.38;1.27;;;20.50;99.90;;;;;;5016904;28;20196;-76
2022/07/07 04:10:32;;;;;;;1.02;1.02;;;20.40;99.90;;;;;;5013416;28;20228;-77
2022/07/07 04:12:59;;;;;;;1.17;1.02;;;20.40;99.90;;;;;;5016549;28;20578;-76
2022/07/07 04:15:27;;;;;;;2.40;1.33;;;20.40;99.90;;;;;;5012121;28;20594;-76
2022/07/07 04:17:55;;;;;;;1.15;1.15;;;20.40;99.90;;;;;;5019338;28;20207;-76
2022/07/07 04:20:24;;;;;;;1.10;1.00;;;20.40;99.90;;;;;;5013990;28;20216;-76
2022/07/07 04:22:51;;;;;;;1.02;1.02;;;20.40;99.90;;;;;;5007199;28;20201;-77
2022/07/07 04:25:19;;;;;;;1.20;1.10;;;20.50;99.90;;;;;;5010010;28;20665;-77
2022/07/07 04:27:46;;;;;;;2.53;1.10;;;20.50;99.90;;;;;;5017856;28;20196;-76
2022/07/07 04:30:14;;;;;;;0.95;0.95;;;20.60;99.90;;;;;;5011405;28;20220;-76
2022/07/07 04:32:42;;;;;;;1.25;1.10;;;20.60;99.90;;;;;;5013658;28;20569;-76
2022/07/07 04:35:10;;;;;;;1.30;1.20;;;20.70;99.90;;;;;;5011925;28;20231;-76
2022/07/07 04:37:37;;;;;;;1.23;1.13;;;20.70;99.90;;;;;;5023213;28;20204;-76
2022/07/07 04:40:06;;;;;;;1.35;1.10;;;20.70;99.90;;;;;;5020361;28;20590;-76
2022/07/07 04:42:33;;;;;;;1.23;1.20;;;20.80;99.90;;;;;;5012933;28;20213;-75
2022/07/07 04:45:00;;;;;;;1.30;1.20;;;20.80;99.90;;;;;;5008948;28;20690;-76
2022/07/07 04:47:27;;;;;;;1.33;1.10;;;20.70;99.90;;;;;;5008495;28;20211;-76
2022/07/07 04:49:56;;;;;;;1.10;1.10;;;20.70;99.90;;;;;;5011591;28;20200;-76
2022/07/07 04:52:23;;;;;;;1.30;1.20;;;20.60;99.90;;;;;;5014669;28;20291;-76
2022/07/07 04:54:50;;;;;;;1.20;1.10;;;20.60;99.90;;;;;;5009470;28;20667;-76
2022/07/07 04:57:18;;;;;;;1.10;1.10;;;20.60;99.90;;;;;;5018299;28;20570;-76
2022/07/07 04:59:45;;;;;;;1.15;1.05;;;20.70;99.90;;;;;;5021699;28;20200;-75
2022/07/07 05:02:12;;;;;;;1.35;1.00;;;20.60;99.90;;;;;;5016173;28;20290;-76
2022/07/07 05:04:39;;;;;;;1.20;1.10;;;20.70;99.90;;;;;;5018851;28;20228;-76
2022/07/07 05:07:08;;;;;;;1.23;1.13;;;20.70;99.90;;;;;;5014165;28;20310;-76
2022/07/07 05:09:35;;;;;;;1.30;1.20;;;20.70;99.90;;;;;;5019833;28;20211;-76
2022/07/07 05:12:02;;;;;;;1.10;1.10;;;20.80;99.90;;;;;;5027802;28;20484;-76
2022/07/07 05:14:30;;;;;;;1.20;1.10;;;20.90;99.90;;;;;;5019583;28;20231;-76
2022/07/07 05:16:57;;;;;;;1.42;1.33;;;21.10;99.90;;;;;;5008089;28;20292;-76
2022/07/07 05:19:24;;;;;;;1.25;1.15;;;21.40;99.90;;;;;;5018313;28;20208;-76
2022/07/07 05:21:51;;;;;;;2.13;1.20;;;21.50;99.90;;;;;;5011764;28;20212;-75
2022/07/07 05:24:20;;;;;;;1.30;1.20;;;21.60;99.90;;;;;;5029272;28;20224;-76
2022/07/07 05:26:47;;;;;;;1.85;1.38;;;21.80;99.90;;;;;;5020418;28;20220;-76
2022/07/07 05:29:15;;;;;;;1.55;1.45;;;21.80;99.90;;;;;;5028381;28;20579;-76
2022/07/07 05:31:42;;;;;;;2.03;1.20;;;21.80;99.90;;;;;;5019289;28;20222;-77
2022/07/07 05:34:09;;;;;;;1.65;1.40;;;21.80;99.90;;;;;;5019479;28;20361;-76
2022/07/07 05:36:36;;;;;;;1.52;1.42;;;21.90;99.90;;;;;;5009303;28;20310;-76
2022/07/07 05:39:04;;;;;;;1.33;1.23;;;21.80;99.90;;;;;;5025352;28;20660;-77
2022/07/07 05:41:32;;;;;;;2.08;1.40;;;21.60;99.90;;;;;;5017103;28;20722;-76
2022/07/07 05:44:00;;;;;;;2.50;1.48;;;21.80;99.90;;;;;;5023599;28;20198;-76
2022/07/07 05:46:27;;;;;;;1.63;1.50;;;21.90;99.90;;;;;;5037370;28;20247;-76
2022/07/07 05:48:54;;;;;;;3.28;1.40;;;22.10;99.90;;;;;;5036370;28;20204;-77
2022/07/07 05:51:21;;;;;;;1.73;1.63;;;22.20;99.90;;;;;;5026908;28;20222;-76
2022/07/07 05:53:48;;;;;;;1.60;1.50;;;22.20;99.90;;;;;;5016350;28;20196;-76
2022/07/07 05:56:15;;;;;;;2.83;1.60;;;22.30;99.90;;;;;;5020280;28;20231;-77
2022/07/07 05:58:44;;;;;;;1.10;1.10;;;22.20;99.90;;;;;;5025328;28;20203;-76
2022/07/07 06:01:11;;;;;;;1.90;1.60;;;22.20;99.90;;;;;;5015346;28;20306;-76
2022/07/07 06:03:38;;;;;;;1.50;1.40;;;22.20;99.90;;;;;;5011520;28;20195;-77
2022/07/07 06:06:06;;;;;;;1.27;1.25;;;22.30;99.90;;;;;;5028794;28;20220;-76
2022/07/07 06:08:33;;;;;;;2.58;1.50;;;22.30;99.90;;;;;;5032816;28;20227;-76
2022/07/07 06:11:00;;;;;;;2.10;1.90;;;22.40;99.90;;;;;;5015083;28;20234;-76
2022/07/07 06:13:28;;;;;;;1.85;1.63;;;22.40;99.90;;;;;;5017971;28;20197;-76
2022/07/07 06:15:57;;;;;;;3.17;1.52;;;22.30;99.90;;;;;;5021115;28;20228;-76
2022/07/07 06:18:24;;;;;;;1.80;1.70;;;22.20;99.90;;;;;;5026528;28;20266;-76
2022/07/07 06:20:51;;;;;;;1.83;1.58;;;22.50;99.90;;;;;;5019856;28;20216;-76
2022/07/07 06:23:19;;;;;;;2.90;1.50;;;22.80;99.90;;;;;;5018041;28;20200;-76
2022/07/07 06:25:46;;;;;;;2.50;1.70;;;23.00;99.90;;;;;;5016973;28;20224;-76
2022/07/07 06:28:14;;;;;;;1.50;1.40;;;22.80;99.90;;;;;;5015723;28;20224;-76
2022/07/07 06:30:41;;;;;;;1.67;1.50;;;22.50;99.90;;;;;;5018665;28;20221;-76
2022/07/07 06:33:09;;;;;;;1.50;1.40;;;22.40;99.90;;;;;;5027574;28;20659;-76
2022/07/07 06:35:36;;;;;;;2.35;1.63;;;22.30;99.90;;;;;;5009175;28;20231;-77
2022/07/07 06:38:04;;;;;;;2.13;1.65;;;22.30;99.90;;;;;;5014902;28;20286;-76
2022/07/07 06:40:31;;;;;;;1.42;1.33;;;22.60;99.90;;;;;;5007237;28;20228;-76
2022/07/07 06:42:58;;;;;;;1.63;1.52;;;23.10;99.90;;;;;;5022200;28;20215;-77
2022/07/07 06:45:26;;;;;;;1.33;1.30;;;23.40;99.90;;;;;;5020156;28;20307;-76
2022/07/07 06:47:53;;;;;;;1.40;1.30;;;23.40;99.90;;;;;;4997991;28;20201;-79
2022/07/07 06:50:22;;;;;;;2.05;1.85;;;23.20;99.90;;;;;;5004140;28;20319;-78
2022/07/07 06:52:49;;;;;;;1.38;1.27;;;23.20;99.90;;;;;;5023011;28;20283;-76
2022/07/07 06:55:16;;;;;;;1.58;1.42;;;23.10;99.90;;;;;;5004904;28;20668;-76
2022/07/07 06:57:43;;;;;;;1.48;1.38;;;23.20;99.90;;;;;;5016862;28;20579;-76
2022/07/07 07:00:12;;;;;;;2.53;1.83;;;23.40;99.90;;;;;;5013293;28;20242;-76
2022/07/07 07:02:43;;;;;;;1.77;1.67;;;23.70;99.90;;;;;;5013494;28;20737;-77
2022/07/07 07:05:11;;;;;;;1.60;1.50;;;23.80;99.90;;;;;;5004603;28;20617;-76
2022/07/07 07:07:39;;;;;;;1.58;1.45;;;23.80;99.90;;;;;;5005744;28;20204;-76
2022/07/07 07:10:07;;;;;;;2.47;1.70;;;24.00;99.90;;;;;;5011613;28;20224;-76
2022/07/07 07:12:35;;;;;;;1.70;1.60;;;24.10;99.90;;;;;;5007035;28;20658;-77
2022/07/07 07:15:02;;;;;;;1.80;1.70;;;24.10;99.90;;;;;;5002240;28;20212;-75
2022/07/07 07:17:29;;;;;;;1.88;1.70;;;24.20;99.90;;;;;;5007736;28;20326;-78
2022/07/07 07:19:56;;;;;;;1.90;1.80;;;24.40;99.90;;;;;;5008477;28;20231;-76
2022/07/07 07:22:23;;;;;;;3.30;2.03;;;24.50;99.90;;;;;;5008325;28;20216;-75
2022/07/07 07:24:52;;;;;;;2.22;1.80;;;24.50;99.90;;;;;;4996403;28;20216;-76
2022/07/07 07:27:19;;;;;;;1.70;1.60;;;24.60;99.90;;;;;;5007448;28;20678;-76
2022/07/07 07:29:46;;;;;;;1.60;1.50;;;24.60;99.90;;;;;;5004865;28;20206;-76
2022/07/07 07:32:13;;;;;;;1.80;1.70;;;24.80;99.90;;;;;;5001904;28;20567;-74
2022/07/07 07:34:40;;;;;;;1.70;1.60;;;24.90;99.90;;;;;;5010214;28;20219;-76
2022/07/07 07:37:08;;;;;;;3.45;1.85;;;25.00;99.90;;;;;;5004673;28;20217;-75
2022/07/07 07:39:35;;;;;;;1.80;1.70;;;25.00;99.90;;;;;;5006940;28;20893;-75
2022/07/07 07:42:04;;;;;;;2.67;1.40;;;25.00;99.90;;;;;;5005582;28;20216;-76
2022/07/07 07:47:16;;;;;;;1.83;1.73;;;25.00;99.90;;;;;;5003977;28;20227;-75
2022/07/07 07:49:43;;;;;;;1.80;1.70;;;24.90;99.90;;;;;;5013833;28;20196;-76
2022/07/07 07:52:10;;;;;;;1.60;1.50;;;24.80;99.90;;;;;;5010930;28;20254;-76
2022/07/07 07:54:37;;;;;;;1.73;1.63;;;24.80;99.90;;;;;;5008655;28;20223;-76
2022/07/07 07:57:06;;;;;;;2.25;1.50;;;25.00;99.90;;;;;;5008746;28;20231;-76
2022/07/07 07:59:34;;;;;;;1.55;1.42;;;25.20;99.90;;;;;;5007591;28;20192;-76
2022/07/07 08:02:01;;;;;;;2.05;1.85;;;25.30;99.90;;;;;;5003954;28;20274;-76
2022/07/07 08:04:28;;;;;;;2.05;1.85;;;25.30;99.90;;;;;;5004987;28;20287;-76
2022/07/07 08:06:55;;;;;;;1.58;1.48;;;25.20;99.90;;;;;;4999808;28;20213;-76
2022/07/07 08:09:22;;;;;;;2.17;1.60;;;25.30;99.90;;;;;;5015469;28;20199;-77
2022/07/07 08:11:50;;;;;;;1.70;1.60;;;25.70;99.90;;;;;;5017660;28;20300;-77
2022/07/07 08:14:18;;;;;;;1.50;1.40;;;26.20;99.90;;;;;;5009625;28;20235;-77
2022/07/07 08:16:46;;;;;;;3.20;1.75;;;26.60;99.90;;;;;;5007410;28;20224;-77
2022/07/07 08:19:17;;;;;;;3.30;1.73;;;26.50;99.90;;;;;;5011838;28;20572;-77
2022/07/07 08:21:46;;;;;;;1.67;1.52;;;26.40;99.90;;;;;;5005451;28;20231;-76
2022/07/07 08:24:13;;;;;;;1.73;1.63;;;26.30;99.90;;;;;;5012110;28;20227;-76
2022/07/07 08:26:41;;;;;;;1.60;1.50;;;26.30;99.90;;;;;;5005087;28;20219;-76
2022/07/07 08:29:08;;;;;;;2.28;1.80;;;26.50;99.90;;;;;;5013184;28;20199;-76
2022/07/07 08:31:37;;;;;;;1.80;1.60;;;26.70;99.90;;;;;;5020056;28;20250;-76
2022/07/07 08:36:41;;;;;;;1.73;1.63;;;26.70;99.90;;;;;;4997776;28;20317;-78
2022/07/07 08:39:08;;;;;;;1.75;1.60;;;26.80;99.90;;;;;;5000092;28;20817;-76
2022/07/07 08:41:36;;;;;;;1.75;1.65;;;26.90;99.90;;;;;;4994786;28;20223;-79
2022/07/07 08:44:04;;;;;;;1.77;1.50;;;27.00;99.90;;;;;;5000138;28;20207;-78
2022/07/07 08:46:31;;;;;;;1.70;1.60;;;26.90;99.90;;;;;;4998552;28;20220;-77
2022/07/07 08:49:00;;;;;;;1.63;1.52;;;27.00;99.90;;;;;;4998351;28;20219;-77
2022/07/07 08:51:27;;;;;;;1.92;1.60;;;27.20;99.90;;;;;;4997926;28;20585;-77
2022/07/07 08:53:54;;;;;;;1.60;1.50;;;27.40;99.90;;;;;;4995051;28;20567;-77
2022/07/07 08:56:22;;;;;;;1.80;1.70;;;27.40;99.90;;;;;;4997741;28;20494;-77
2022/07/07 08:58:51;;;;;;;1.70;1.60;;;27.60;99.90;;;;;;5000040;28;20196;-78
2022/07/07 09:01:18;;;;;;;1.90;1.80;;;27.80;99.90;;;;;;4993558;28;20704;-77
2022/07/07 09:03:45;;;;;;;1.50;1.40;;;27.70;99.90;;;;;;4994331;28;20598;-79
2022/07/07 09:06:16;;;;;;;1.90;1.60;;;27.40;99.90;;;;;;4995748;28;20903;-75
2022/07/07 09:08:43;;;;;;;5.78;1.75;;;27.30;99.90;;;;;;4994672;28;20192;-78
2022/07/07 09:11:11;;;;;;;1.70;1.60;;;27.40;99.90;;;;;;5006406;28;20229;-76
2022/07/07 09:13:38;;;;;;;1.70;1.60;;;27.50;99.90;;;;;;4997420;28;20910;-78
2022/07/07 09:16:14;;;;;;;2.60;1.70;;;27.70;99.90;;;;;;4995898;28;20273;-79
2022/07/07 09:18:44;;;;;;;1.50;1.40;;;27.90;99.90;;;;;;5000665;28;20234;-78
2022/07/07 09:21:29;;;;;;;2.78;1.48;;;28.10;99.90;;;;;;4994615;28;20260;-78
2022/07/07 09:23:58;;;;;;;1.67;1.58;;;28.40;99.90;;;;;;4996290;28;20208;-78
2022/07/07 09:26:36;;;;;;;1.77;1.42;;;28.40;99.90;;;;;;4999213;28;20228;-77
2022/07/07 09:29:03;;;;;;;3.72;1.52;;;28.30;99.90;;;;;;5002454;28;20651;-78
2022/07/07 09:31:52;;;;;;;1.38;1.27;;;28.30;99.90;;;;;;4992711;28;20591;-78
2022/07/07 09:34:21;;;;;;;2.35;1.30;;;27.90;99.90;;;;;;4996918;28;20211;-76
2022/07/07 09:39:46;;;;;;;1.75;1.63;;;27.90;99.90;;;;;;4997788;28;20591;-79
2022/07/07 09:42:21;;;;;;;2.40;1.52;;;27.70;99.90;;;;;;4991569;28;20298;-77
2022/07/07 09:44:50;;;;;;;1.30;1.20;;;27.40;99.90;;;;;;4994670;28;20255;-76
2022/07/07 09:47:17;;;;;;;1.40;1.30;;;27.80;99.90;;;;;;4992821;28;20201;-77
2022/07/07 09:49:44;;;;;;;1.20;1.10;;;27.90;99.90;;;;;;4993301;28;20201;-75
2022/07/07 09:52:20;;;;;;;1.73;1.10;;;27.80;99.90;;;;;;4992770;28;20228;-76
2022/07/07 09:54:49;;;;;;;1.45;1.30;;;27.80;99.90;;;;;;4992284;28;20240;-78
2022/07/07 09:57:17;;;;;;;1.40;1.30;;;28.20;99.90;;;;;;4996008;28;20223;-78
2022/07/07 09:59:44;;;;;;;1.35;1.25;;;28.50;99.90;;;;;;4992019;28;20905;-77
2022/07/07 10:02:19;;;;;;;1.35;1.25;;;28.70;99.90;;;;;;5006143;28;20229;-78
2022/07/07 10:04:49;;;;;;;1.30;1.20;;;28.50;99.90;;;;;;4994885;28;20223;-78
2022/07/07 10:07:22;;;;;;;1.45;1.33;;;28.20;99.90;;;;;;4994824;28;20216;-78
2022/07/07 10:09:54;;;;;;;1.63;1.33;;;28.20;99.90;;;;;;4996558;28;20724;-79
2022/07/07 10:12:23;;;;;;;1.42;1.30;;;28.70;99.90;;;;;;4995973;28;20635;-79
2022/07/07 10:14:54;;;;;;;1.60;1.20;;;29.20;99.90;;;;;;4995951;28;20230;-77
2022/07/07 10:17:23;;;;;;;1.45;1.15;;;29.60;99.90;;;;;;4995129;28;20221;-76
2022/07/07 10:19:50;;;;;;;1.25;1.15;;;29.50;99.90;;;;;;5001953;28;20302;-77
2022/07/07 10:22:21;;;;;;;1.30;1.20;;;29.30;99.90;;;;;;5000508;28;20657;-80
2022/07/07 10:24:49;;;;;;;1.20;1.10;;;29.30;99.90;;;;;;4995321;28;20231;-77
2022/07/07 10:27:21;;;;;;;1.50;1.30;;;29.40;99.90;;;;;;4994891;28;20208;-78
2022/07/07 10:29:50;;;;;;;1.13;1.05;;;29.70;99.90;;;;;;4989089;28;20197;-78
2022/07/07 10:32:18;;;;;;;1.35;1.25;;;29.90;99.90;;;;;;5000424;28;20463;-78
2022/07/07 10:34:51;;;;;;;1.77;1.30;;;30.10;99.90;;;;;;4994931;28;20231;-77
2022/07/07 10:37:20;;;;;;;1.60;1.15;;;30.10;99.90;;;;;;5001067;28;20232;-77
2022/07/07 10:39:49;;;;;;;1.38;1.20;;;29.80;99.90;;;;;;5000194;28;20294;-78
2022/07/07 10:42:56;;;;;;;1.25;1.13;;;29.50;99.90;;;;;;5002290;28;20665;-77
2022/07/07 10:45:23;;;;;;;1.83;1.40;;;29.20;99.90;;;;;;4989896;28;20232;-77
2022/07/07 10:47:51;;;;;;;1.67;1.02;;;29.20;99.90;;;;;;4996489;28;20208;-77
2022/07/07 10:50:30;;;;;;;1.20;1.10;;;29.20;99.90;;;;;;4989210;28;20224;-78
2022/07/07 10:53:00;;;;;;;3.10;1.35;;;28.70;99.90;;;;;;4996978;28;20680;-80
2022/07/07 10:55:53;;;;;;;1.83;0.98;;;28.20;99.90;;;;;;5001569;28;20318;-77
2022/07/07 10:58:55;;;;;;;1.33;1.23;;;28.00;99.90;;;;;;4992765;28;20235;-77
2022/07/07 11:01:23;;;;;;;0.98;0.98;;;27.90;99.90;;;;;;4991606;28;20707;-77
2022/07/07 11:03:50;;;;;;;1.20;1.10;;;28.00;99.90;;;;;;4995728;28;20303;-78
2022/07/07 11:06:18;;;;;;;1.13;1.10;;;28.20;99.90;;;;;;4991071;28;20429;-78
2022/07/07 11:08:56;;;;;;;0.90;0.90;;;28.30;99.90;;;;;;4994432;28;20204;-77
2022/07/07 11:11:23;;;;;;;1.48;1.38;;;28.30;99.90;;;;;;4986866;28;20229;-78
2022/07/07 11:14:06;;;;;;;1.42;1.20;;;28.00;99.90;;;;;;4995601;28;20212;-75
2022/07/07 11:16:33;;;;;;;1.10;1.10;;;27.60;99.90;;;;;;4994400;28;20223;-79
2022/07/07 11:19:04;;;;;;;1.40;1.30;;;27.30;99.90;;;;;;4989927;28;20211;-78
2022/07/07 11:21:36;;;;;;;2.10;1.20;;;27.10;99.90;;;;;;4989764;28;20225;-77
2022/07/07 11:24:18;;;;;;;1.17;1.00;;;26.90;99.90;;;;;;4988280;28;20360;-77
2022/07/07 11:26:55;;;;;;;1.00;1.00;;;26.80;99.90;;;;;;4993127;28;20224;-78
2022/07/07 11:29:22;;;;;;;1.13;1.10;;;26.70;99.90;;;;;;4994232;28;20208;-80
2022/07/07 11:31:58;;;;;;;1.10;1.00;;;26.70;99.90;;;;;;4992275;28;20213;-79
2022/07/07 11:34:25;;;;;;;1.10;1.10;;;26.70;99.90;;;;;;4990788;28;20206;-80
2022/07/07 11:36:53;;;;;;;1.25;1.10;;;26.70;99.90;;;;;;4994751;28;20236;-76
2022/07/07 11:39:21;;;;;;;1.20;1.10;;;26.70;99.90;;;;;;4991906;28;20197;-77
2022/07/07 11:41:48;;;;;;;1.10;1.00;;;26.70;99.90;;;;;;5000790;28;20231;-79
2022/07/07 11:44:19;;;;;;;1.55;1.08;;;26.70;99.90;;;;;;5001719;28;20210;-79
2022/07/07 11:46:49;;;;;;;1.50;1.40;;;26.70;99.90;;;;;;5013315;28;20239;-79
2022/07/07 11:49:17;;;;;;;1.30;1.13;;;26.70;99.90;;;;;;4998137;28;20200;-78
2022/07/07 11:51:46;;;;;;;1.40;1.30;;;26.80;99.90;;;;;;4996812;28;20226;-78
2022/07/07 11:54:14;;;;;;;1.40;1.30;;;27.00;99.90;;;;;;4994218;28;20204;-79
2022/07/07 11:56:43;;;;;;;1.30;1.20;;;27.60;99.90;;;;;;4992884;28;20473;-78
2022/07/07 11:59:11;;;;;;;1.45;1.35;;;28.10;99.90;;;;;;4995354;28;20624;-79
2022/07/07 12:01:40;;;;;;;1.15;1.15;;;28.50;99.90;;;;;;4995869;28;20290;-78
2022/07/07 12:04:17;;;;;;;1.42;1.30;;;28.90;99.90;;;;;;4995285;28;20252;-79
2022/07/07 12:06:45;;;;;;;1.60;1.50;;;29.10;99.90;;;;;;4993500;28;20415;-79
2022/07/07 12:09:12;;;;;;;1.30;1.20;;;29.20;99.90;;;;;;5000896;28;20208;-78
2022/07/07 12:11:40;;;;;;;1.33;1.13;;;29.40;99.90;;;;;;4997761;28;20710;-79
2022/07/07 12:14:11;;;;;;;1.33;1.23;;;29.40;99.90;;;;;;4997116;28;20197;-78
2022/07/07 12:16:43;;;;;;;1.95;1.30;;;29.20;99.90;;;;;;4994404;28;20354;-79
2022/07/07 12:19:10;;;;;;;3.00;1.42;;;29.10;99.90;;;;;;4995101;28;20794;-78
2022/07/07 12:21:43;;;;;;;1.70;1.60;;;28.90;99.90;;;;;;4996003;28;20219;-78
2022/07/07 12:24:15;;;;;;;1.58;1.42;;;28.70;99.90;;;;;;4997095;28;20231;-76
2022/07/07 12:26:49;;;;;;;2.47;1.30;;;28.30;99.90;;;;;;4997992;28;20730;-79
2022/07/07 12:29:18;;;;;;;1.58;1.48;;;28.40;99.90;;;;;;5001666;28;20590;-76
2022/07/07 12:31:46;;;;;;;2.28;1.40;;;28.40;99.90;;;;;;4991509;28;20224;-78
2022/07/07 12:34:14;;;;;;;1.67;1.58;;;28.40;99.90;;;;;;4998454;28;20757;-79
2022/07/07 12:36:43;;;;;;;1.48;1.38;;;28.40;99.90;;;;;;5000129;28;20266;-79
2022/07/07 12:39:10;;;;;;;2.33;1.70;;;28.20;99.90;;;;;;5008623;28;20226;-78
2022/07/07 12:41:39;;;;;;;2.35;1.83;;;27.90;99.90;;;;;;4997549;28;20643;-79
2022/07/07 12:44:15;;;;;;;1.90;1.75;;;27.90;99.90;;;;;;5001232;28;20197;-79
2022/07/07 12:46:44;;;;;;;1.80;1.70;;;27.70;99.90;;;;;;4992847;28;20615;-79
2022/07/07 12:49:13;;;;;;;1.80;1.70;;;27.40;99.90;;;;;;4998451;28;20205;-78
2022/07/07 12:51:44;;;;;;;1.90;1.73;;;27.70;99.90;;;;;;4994807;28;20251;-78
2022/07/07 12:54:22;;;;;;;2.00;1.20;;;28.10;99.90;;;;;;4989185;28;20610;-78
2022/07/07 12:56:58;;;;;;;1.73;1.30;;;28.50;99.90;;;;;;4995531;28;20808;-79
2022/07/07 12:59:25;;;;;;;1.83;1.35;;;28.70;99.90;;;;;;4996191;28;20234;-78
2022/07/07 13:01:55;;;;;;;1.90;1.40;;;28.90;99.90;;;;;;4998409;28;20231;-78
2022/07/07 13:04:23;;;;;;;1.40;1.30;;;29.00;99.90;;;;;;5000269;28;20205;-78